Time;durP1;ratioP1;P1;durP2;ratioP2;P2;SDS_P1;SDS_P2;PMS_P1;PMS_P2;Temp;Humidity;BMP_temperature;BMP_pressure;BME280_temperature;BME280_humidity;BME280_pressure;Samples;Min_cycle;Max_cycle;Signal;HPM_P1;HPM_P2
2021/01/07 00:00:40;;;;;;;7.25;3.83;;;4.10;81.10;;;;;;5093102;28;20039;-73
2021/01/07 00:03:06;;;;;;;5.93;3.63;;;4.10;81.10;;;;;;5093407;28;20028;-74
2021/01/07 00:05:31;;;;;;;7.47;3.95;;;4.10;81.10;;;;;;5093121;28;20032;-74
2021/01/07 00:07:57;;;;;;;7.65;4.07;;;4.10;81.20;;;;;;5093050;28;20122;-74
2021/01/07 00:10:23;;;;;;;5.80;3.55;;;4.00;81.20;;;;;;5093180;28;20340;-74
2021/01/07 00:12:49;;;;;;;5.60;3.85;;;4.00;81.20;;;;;;5092966;28;20468;-74
2021/01/07 00:15:14;;;;;;;7.50;4.05;;;4.00;81.30;;;;;;5093141;28;20067;-73
2021/01/07 00:17:40;;;;;;;5.18;3.90;;;4.00;81.40;;;;;;5091740;28;20028;-73
2021/01/07 00:20:10;;;;;;;6.60;3.92;;;4.00;81.40;;;;;;5093128;28;20020;-74
2021/01/07 00:22:36;;;;;;;5.95;3.50;;;3.90;81.50;;;;;;5089335;28;20035;-74
2021/01/07 00:25:05;;;;;;;5.95;3.88;;;3.90;81.50;;;;;;5093016;28;20032;-74
2021/01/07 00:27:30;;;;;;;7.72;4.22;;;3.90;81.50;;;;;;5091356;28;20487;-73
2021/01/07 00:29:56;;;;;;;6.85;4.28;;;3.80;81.60;;;;;;5092817;28;20161;-73
2021/01/07 00:32:22;;;;;;;6.40;3.92;;;3.80;81.80;;;;;;5092818;28;20306;-73
2021/01/07 00:34:47;;;;;;;6.30;4.20;;;3.70;81.90;;;;;;5092768;28;20028;-74
2021/01/07 00:37:14;;;;;;;6.38;3.67;;;3.70;82.00;;;;;;5091535;28;20028;-74
2021/01/07 00:39:40;;;;;;;5.22;3.35;;;3.70;82.00;;;;;;5092768;28;20034;-74
2021/01/07 00:42:06;;;;;;;7.28;4.15;;;3.70;82.00;;;;;;5091461;28;20476;-74
2021/01/07 00:44:32;;;;;;;5.20;3.75;;;3.70;82.00;;;;;;5093013;28;20532;-74
2021/01/07 00:46:58;;;;;;;10.27;4.38;;;3.70;82.20;;;;;;5095336;28;20039;-73
2021/01/07 00:49:23;;;;;;;6.18;3.83;;;3.70;82.20;;;;;;5096201;28;20028;-74
2021/01/07 00:51:49;;;;;;;8.35;3.88;;;3.60;82.20;;;;;;5095263;28;20030;-73
2021/01/07 00:54:15;;;;;;;9.40;4.93;;;3.70;82.30;;;;;;5097171;28;20034;-74
2021/01/07 00:56:41;;;;;;;6.63;3.70;;;3.70;82.20;;;;;;5095615;28;20024;-73
2021/01/07 00:59:07;;;;;;;10.65;4.03;;;3.70;82.10;;;;;;5095907;28;20028;-74
2021/01/07 01:01:41;;;;;;;6.93;3.97;;;3.80;82.20;;;;;;5095505;28;20020;-74
2021/01/07 01:04:07;;;;;;;6.28;3.80;;;3.80;82.00;;;;;;5096809;28;20089;-73
2021/01/07 01:06:33;;;;;;;6.85;4.40;;;3.80;82.00;;;;;;5095188;28;20032;-74
2021/01/07 01:08:59;;;;;;;7.78;4.13;;;3.80;82.10;;;;;;5095046;28;20027;-74
2021/01/07 01:11:25;;;;;;;7.18;3.53;;;3.80;82.10;;;;;;5095137;28;20076;-73
2021/01/07 01:13:51;;;;;;;4.50;3.38;;;3.80;82.00;;;;;;5096235;28;20040;-73
2021/01/07 01:16:17;;;;;;;6.00;3.55;;;3.80;82.10;;;;;;5095039;28;20435;-73
2021/01/07 01:18:43;;;;;;;5.57;3.42;;;3.90;82.20;;;;;;5097223;28;20028;-73
2021/01/07 01:21:08;;;;;;;6.18;3.83;;;3.90;82.20;;;;;;5097024;28;20115;-74
2021/01/07 01:23:34;;;;;;;6.05;3.53;;;3.80;82.00;;;;;;5096132;28;20107;-74
2021/01/07 01:26:00;;;;;;;6.43;3.90;;;3.80;82.20;;;;;;5094902;28;20024;-73
2021/01/07 01:28:26;;;;;;;5.18;3.72;;;3.80;82.20;;;;;;5094784;28;20030;-74
2021/01/07 01:34:15;;;;;;;6.65;3.95;;;3.90;82.40;;;;;;5096523;28;20101;-73
2021/01/07 01:36:41;;;;;;;6.53;4.07;;;3.90;82.20;;;;;;5094697;28;20074;-74
2021/01/07 01:39:06;;;;;;;5.75;4.13;;;3.90;82.20;;;;;;5096090;28;20028;-74
2021/01/07 01:41:39;;;;;;;6.57;4.10;;;3.80;82.20;;;;;;5094766;28;20157;-73
2021/01/07 01:44:07;;;;;;;7.15;4.40;;;3.80;82.40;;;;;;5095846;28;20391;-74
2021/01/07 01:46:33;;;;;;;9.98;4.35;;;3.80;82.30;;;;;;5094720;28;20027;-74
2021/01/07 01:49:00;;;;;;;7.68;4.45;;;3.80;82.50;;;;;;5094407;28;20475;-73
2021/01/07 01:51:25;;;;;;;6.75;4.20;;;3.80;82.60;;;;;;5094375;28;20027;-73
2021/01/07 01:53:51;;;;;;;7.28;4.40;;;3.80;82.50;;;;;;5094360;28;20468;-73
2021/01/07 01:56:17;;;;;;;6.47;4.35;;;3.80;82.50;;;;;;5093086;28;20404;-74
2021/01/07 01:58:43;;;;;;;7.43;4.38;;;3.80;82.50;;;;;;5094133;28;20036;-74
2021/01/07 02:01:09;;;;;;;6.57;4.05;;;3.80;82.50;;;;;;5094090;28;20127;-74
2021/01/07 02:03:39;;;;;;;7.40;4.50;;;3.80;82.60;;;;;;5095421;28;20450;-73
2021/01/07 02:06:08;;;;;;;6.70;4.82;;;3.80;82.80;;;;;;5094559;28;20390;-74
2021/01/07 02:08:36;;;;;;;7.20;4.40;;;3.90;82.80;;;;;;5095412;28;20040;-73
2021/01/07 02:11:01;;;;;;;6.32;4.80;;;3.90;82.70;;;;;;5094267;28;20035;-74
2021/01/07 02:13:27;;;;;;;7.63;5.35;;;4.00;82.80;;;;;;5093665;28;20047;-73
2021/01/07 02:15:53;;;;;;;67.13;7.80;;;3.90;82.70;;;;;;5095273;28;20031;-74
2021/01/07 02:18:19;;;;;;;8.18;5.15;;;4.00;82.80;;;;;;5093808;28;20024;-74
2021/01/07 02:20:44;;;;;;;10.40;5.75;;;4.00;82.80;;;;;;5093839;28;20222;-74
2021/01/07 02:23:12;;;;;;;12.23;5.65;;;4.00;82.70;;;;;;5093671;28;20028;-73
2021/01/07 02:25:38;;;;;;;10.13;5.90;;;4.00;82.80;;;;;;5093934;28;20046;-73
2021/01/07 02:28:04;;;;;;;9.13;5.82;;;4.10;82.80;;;;;;5093640;28;20028;-74
2021/01/07 02:30:29;;;;;;;9.20;6.05;;;4.10;82.70;;;;;;5094943;28;20085;-73
2021/01/07 02:32:55;;;;;;;7.78;5.72;;;4.00;82.70;;;;;;5095194;28;20020;-73
2021/01/07 02:35:21;;;;;;;8.55;5.85;;;4.00;82.70;;;;;;5093541;28;20532;-73
2021/01/07 02:37:46;;;;;;;9.18;5.85;;;4.10;82.70;;;;;;5095227;28;20031;-74
2021/01/07 02:40:13;;;;;;;7.38;5.43;;;4.00;82.60;;;;;;5093559;28;20420;-73
2021/01/07 02:42:39;;;;;;;7.65;5.57;;;4.10;82.70;;;;;;5095411;28;20020;-73
2021/01/07 02:45:08;;;;;;;8.32;5.68;;;4.10;82.80;;;;;;5095842;28;20383;-74
2021/01/07 02:47:34;;;;;;;9.35;5.90;;;4.10;82.80;;;;;;5093593;28;20072;-73
2021/01/07 02:50:00;;;;;;;7.47;5.93;;;4.10;82.80;;;;;;5093472;28;20037;-74
2021/01/07 02:52:26;;;;;;;9.77;5.93;;;4.10;82.80;;;;;;5094747;28;20020;-73
2021/01/07 02:54:51;;;;;;;9.13;5.70;;;4.10;82.70;;;;;;5093638;28;20020;-73
2021/01/07 02:57:17;;;;;;;9.00;6.25;;;4.20;82.60;;;;;;5093485;28;20198;-74
2021/01/07 02:59:42;;;;;;;9.43;5.53;;;4.20;82.60;;;;;;5094642;28;20038;-74
2021/01/07 03:02:08;;;;;;;9.27;5.93;;;4.20;82.60;;;;;;5093182;28;20379;-74
2021/01/07 03:04:34;;;;;;;7.90;6.25;;;4.20;82.60;;;;;;5092990;28;20035;-73
2021/01/07 03:06:59;;;;;;;9.82;6.25;;;4.20;82.50;;;;;;5092413;28;20031;-73
2021/01/07 03:09:25;;;;;;;8.07;5.80;;;4.10;82.50;;;;;;5093395;28;20077;-74
2021/01/07 03:11:51;;;;;;;8.27;5.85;;;4.10;82.60;;;;;;5092806;28;20468;-73
2021/01/07 03:14:16;;;;;;;10.57;5.60;;;4.10;82.60;;;;;;5093905;28;20441;-73
2021/01/07 03:16:42;;;;;;;8.35;5.20;;;4.10;82.70;;;;;;5094250;28;20031;-74
2021/01/07 03:19:07;;;;;;;7.80;5.30;;;4.10;82.70;;;;;;5092743;28;20024;-74
2021/01/07 03:21:33;;;;;;;9.35;5.50;;;4.10;82.70;;;;;;5093015;28;20467;-74
2021/01/07 03:23:59;;;;;;;8.40;5.88;;;4.10;82.60;;;;;;5093980;28;20039;-73
2021/01/07 03:26:24;;;;;;;8.57;5.70;;;4.10;82.70;;;;;;5094241;28;20036;-74
2021/01/07 03:28:50;;;;;;;7.57;5.60;;;4.10;82.80;;;;;;5092471;28;20502;-73
2021/01/07 03:31:16;;;;;;;6.90;5.15;;;4.20;82.90;;;;;;5093678;28;20020;-74
2021/01/07 03:33:41;;;;;;;7.38;5.55;;;4.20;82.80;;;;;;5093852;28;20025;-73
2021/01/07 03:36:07;;;;;;;6.25;5.03;;;4.20;82.70;;;;;;5093946;28;20028;-73
2021/01/07 03:38:32;;;;;;;6.78;5.55;;;4.20;82.70;;;;;;5092342;28;20475;-73
2021/01/07 03:40:58;;;;;;;8.40;5.65;;;4.30;82.70;;;;;;5093674;28;20028;-74
2021/01/07 03:43:24;;;;;;;6.25;4.97;;;4.30;82.60;;;;;;5092060;28;20034;-73
2021/01/07 03:45:49;;;;;;;7.10;5.30;;;4.30;82.60;;;;;;5093467;28;20054;-73
2021/01/07 03:48:15;;;;;;;7.50;5.30;;;4.30;82.60;;;;;;5092122;28;20032;-74
2021/01/07 03:50:40;;;;;;;6.10;4.82;;;4.40;82.60;;;;;;5092300;28;20020;-74
2021/01/07 03:53:06;;;;;;;7.18;4.70;;;4.30;82.40;;;;;;5092299;28;20448;-73
2021/01/07 03:55:32;;;;;;;6.78;4.72;;;4.30;82.40;;;;;;5092138;28;20494;-73
2021/01/07 03:57:57;;;;;;;7.18;4.95;;;4.30;82.40;;;;;;5093522;28;20117;-73
2021/01/07 04:00:23;;;;;;;7.10;5.40;;;4.30;82.40;;;;;;5093261;28;20096;-74
2021/01/07 04:02:49;;;;;;;7.53;4.88;;;4.30;82.40;;;;;;5091917;28;20119;-73
2021/01/07 04:05:14;;;;;;;5.63;4.60;;;4.30;82.30;;;;;;5091796;28;20047;-73
2021/01/07 04:07:40;;;;;;;7.57;5.07;;;4.30;82.20;;;;;;5091709;28;20479;-74
2021/01/07 04:10:08;;;;;;;7.05;5.30;;;4.30;82.20;;;;;;5093115;28;20024;-74
2021/01/07 04:12:36;;;;;;;8.38;5.50;;;4.30;82.20;;;;;;5091634;28;20031;-73
2021/01/07 04:15:04;;;;;;;8.82;5.47;;;4.20;82.20;;;;;;5091476;28;20123;-73
2021/01/07 04:17:31;;;;;;;6.47;4.93;;;4.20;82.20;;;;;;5092916;28;20031;-74
2021/01/07 04:19:56;;;;;;;6.45;4.60;;;4.20;82.20;;;;;;5090946;28;20384;-73
2021/01/07 04:22:22;;;;;;;7.63;4.78;;;4.20;82.10;;;;;;5091635;28;20035;-74
2021/01/07 04:24:47;;;;;;;6.38;4.63;;;4.20;82.90;;;;;;5091553;28;20040;-75
2021/01/07 04:27:13;;;;;;;8.55;4.65;;;4.10;82.20;;;;;;5093097;28;20029;-74
2021/01/07 04:29:39;;;;;;;7.47;4.38;;;4.10;82.20;;;;;;5093153;28;20379;-74
2021/01/07 04:32:05;;;;;;;7.45;4.75;;;4.10;82.20;;;;;;5092038;28;20413;-74
2021/01/07 04:34:30;;;;;;;7.20;4.78;;;4.20;82.40;;;;;;5091743;28;20049;-73
2021/01/07 04:36:56;;;;;;;7.55;4.97;;;4.20;82.90;;;;;;5091483;28;20178;-74
2021/01/07 04:39:21;;;;;;;9.50;5.10;;;4.20;82.30;;;;;;5091464;28;20361;-73
2021/01/07 04:41:47;;;;;;;8.35;5.30;;;4.20;82.30;;;;;;5091625;28;20024;-73
2021/01/07 04:44:13;;;;;;;8.90;5.93;;;4.30;82.30;;;;;;5091227;28;20111;-73
2021/01/07 04:46:39;;;;;;;7.07;5.38;;;4.30;82.30;;;;;;5092879;28;20031;-74
2021/01/07 04:49:05;;;;;;;9.65;6.45;;;4.30;82.40;;;;;;5092581;28;20412;-73
2021/01/07 04:51:31;;;;;;;8.60;5.45;;;4.30;82.30;;;;;;5092548;28;20054;-74
2021/01/07 04:53:57;;;;;;;9.60;6.45;;;4.20;82.30;;;;;;5092838;28;20024;-73
2021/01/07 04:56:23;;;;;;;8.50;6.25;;;4.20;82.40;;;;;;5091237;28;20082;-74
2021/01/07 04:58:48;;;;;;;10.00;6.78;;;4.30;82.40;;;;;;5091260;28;20024;-74
2021/01/07 05:01:14;;;;;;;11.40;6.63;;;4.20;82.50;;;;;;5091204;28;20472;-74
2021/01/07 05:03:45;;;;;;;8.95;6.35;;;4.20;82.50;;;;;;5091274;28;20028;-74
2021/01/07 05:06:11;;;;;;;11.23;6.90;;;4.20;82.70;;;;;;5091203;28;20467;-73
2021/01/07 05:08:36;;;;;;;9.70;6.82;;;4.20;82.80;;;;;;5092498;28;20031;-73
2021/01/07 05:11:02;;;;;;;12.48;7.60;;;4.20;82.80;;;;;;5091217;28;20020;-74
2021/01/07 05:13:27;;;;;;;10.60;7.28;;;4.20;82.80;;;;;;5090991;28;20044;-74
2021/01/07 05:15:53;;;;;;;12.48;7.05;;;4.20;82.90;;;;;;5091176;28;20043;-73
2021/01/07 05:18:19;;;;;;;12.48;8.63;;;4.30;82.90;;;;;;5091091;28;20387;-73
2021/01/07 05:20:44;;;;;;;11.65;8.00;;;4.20;82.70;;;;;;5092575;28;20024;-74
2021/01/07 05:23:10;;;;;;;11.25;7.82;;;4.20;82.70;;;;;;5092494;28;20028;-74
2021/01/07 05:25:43;;;;;;;11.02;7.72;;;4.20;82.80;;;;;;5090898;28;20028;-73
2021/01/07 05:28:11;;;;;;;11.00;7.57;;;4.20;82.90;;;;;;5092405;28;20479;-73
2021/01/07 05:30:37;;;;;;;11.98;7.80;;;4.20;82.80;;;;;;5094156;28;20039;-73
2021/01/07 05:33:08;;;;;;;9.73;7.10;;;4.20;82.80;;;;;;5095849;28;20357;-74
2021/01/07 05:35:35;;;;;;;10.75;7.20;;;4.20;83.50;;;;;;5094526;28;20016;-74
2021/01/07 05:38:04;;;;;;;11.10;6.80;;;4.20;82.90;;;;;;5095833;28;20036;-73
2021/01/07 05:40:30;;;;;;;13.27;7.45;;;4.20;82.90;;;;;;5094373;28;20058;-73
2021/01/07 05:42:58;;;;;;;9.38;6.80;;;4.20;82.90;;;;;;5094371;28;20028;-73
2021/01/07 05:45:34;;;;;;;9.25;6.82;;;4.20;82.90;;;;;;5095782;28;20032;-73
2021/01/07 05:48:01;;;;;;;8.60;6.55;;;4.20;82.90;;;;;;5094172;28;20369;-73
2021/01/07 05:50:29;;;;;;;10.80;6.10;;;4.20;82.90;;;;;;5095540;28;20063;-74
2021/01/07 05:52:54;;;;;;;9.85;5.93;;;4.20;82.90;;;;;;5095564;28;20492;-74
2021/01/07 05:55:20;;;;;;;8.18;5.13;;;4.20;83.10;;;;;;5095541;28;20063;-73
2021/01/07 05:57:47;;;;;;;8.40;6.03;;;4.20;83.10;;;;;;5095537;28;20430;-73
2021/01/07 06:00:16;;;;;;;6.97;5.20;;;4.30;83.10;;;;;;5095340;28;20035;-74
2021/01/07 06:02:44;;;;;;;7.47;5.40;;;4.20;83.00;;;;;;5095675;28;20360;-74
2021/01/07 06:05:12;;;;;;;7.95;5.30;;;4.30;83.00;;;;;;5095349;28;20111;-74
2021/01/07 06:07:39;;;;;;;6.70;5.35;;;4.30;83.00;;;;;;5095412;28;20028;-73
2021/01/07 06:10:07;;;;;;;7.93;5.18;;;4.30;83.00;;;;;;5094280;28;20361;-74
2021/01/07 06:12:33;;;;;;;9.45;5.47;;;4.40;83.00;;;;;;5094030;28;20020;-73
2021/01/07 06:15:06;;;;;;;7.55;5.35;;;4.40;83.00;;;;;;5095109;28;20407;-74
2021/01/07 06:17:32;;;;;;;6.30;4.87;;;4.40;83.00;;;;;;5095197;28;20105;-74
2021/01/07 06:19:57;;;;;;;9.25;5.40;;;4.40;83.00;;;;;;5093774;28;20402;-74
2021/01/07 06:22:24;;;;;;;7.40;5.03;;;4.40;83.00;;;;;;5095621;28;20103;-73
2021/01/07 06:24:56;;;;;;;5.93;5.10;;;4.40;83.00;;;;;;5093780;28;20028;-73
2021/01/07 06:27:27;;;;;;;7.65;5.13;;;4.40;83.00;;;;;;5095107;28;20028;-74
2021/01/07 06:29:57;;;;;;;6.63;5.35;;;4.40;83.00;;;;;;5095860;28;20452;-74
2021/01/07 06:32:23;;;;;;;7.47;5.63;;;4.40;83.00;;;;;;5093530;28;20074;-74
2021/01/07 06:34:51;;;;;;;7.50;5.65;;;4.50;82.90;;;;;;5093589;28;20028;-74
2021/01/07 06:37:42;;;;;;;7.40;5.57;;;4.40;82.90;;;;;;5094800;28;20060;-74
2021/01/07 06:40:11;;;;;;;6.90;5.40;;;4.40;83.00;;;;;;5093430;28;20070;-73
2021/01/07 06:42:38;;;;;;;9.88;6.22;;;4.40;83.00;;;;;;5092899;28;20012;-74
2021/01/07 06:45:06;;;;;;;8.73;6.22;;;4.40;83.20;;;;;;5094732;28;20432;-73
2021/01/07 06:47:32;;;;;;;7.72;5.38;;;4.40;83.00;;;;;;5093235;28;20031;-74
2021/01/07 06:49:59;;;;;;;8.48;6.15;;;4.40;83.20;;;;;;5093247;28;20035;-74
2021/01/07 06:52:32;;;;;;;7.95;5.43;;;4.30;83.20;;;;;;5093170;28;20432;-73
2021/01/07 06:54:58;;;;;;;7.85;5.47;;;4.30;83.30;;;;;;5094777;28;20016;-74
2021/01/07 06:57:23;;;;;;;8.80;6.05;;;4.40;83.40;;;;;;5092922;28;20020;-73
2021/01/07 07:00:05;;;;;;;7.68;5.97;;;4.40;83.30;;;;;;5094237;28;20032;-74
2021/01/07 07:02:31;;;;;;;7.95;5.50;;;4.40;83.30;;;;;;5094182;28;20024;-73
2021/01/07 07:05:06;;;;;;;8.70;5.75;;;4.40;83.30;;;;;;5094316;28;20496;-73
2021/01/07 07:07:38;;;;;;;8.35;5.70;;;4.50;83.40;;;;;;5092668;28;20031;-73
2021/01/07 07:10:18;;;;;;;7.28;5.45;;;4.50;83.20;;;;;;5092735;28;20383;-73
2021/01/07 07:12:51;;;;;;;8.88;6.22;;;4.50;83.30;;;;;;5092713;28;20024;-73
2021/01/07 07:15:21;;;;;;;6.60;5.35;;;4.50;83.30;;;;;;5092545;28;20451;-73
2021/01/07 07:17:47;;;;;;;7.43;5.07;;;4.60;83.30;;;;;;5094274;28;20021;-72
2021/01/07 07:20:20;;;;;;;7.13;4.75;;;4.60;83.30;;;;;;5093821;28;20483;-72
2021/01/07 07:22:46;;;;;;;7.72;5.47;;;4.50;83.20;;;;;;5093907;28;20380;-73
2021/01/07 07:25:15;;;;;;;6.35;4.80;;;4.60;83.30;;;;;;5092462;28;20042;-73
2021/01/07 07:28:04;;;;;;;7.40;4.22;;;4.50;83.20;;;;;;5092551;28;20169;-72
2021/01/07 07:30:34;;;;;;;6.88;4.57;;;4.50;83.30;;;;;;5092393;28;20472;-73
2021/01/07 07:33:01;;;;;;;5.10;4.25;;;4.50;83.20;;;;;;5092460;28;20016;-72
2021/01/07 07:35:29;;;;;;;6.13;4.30;;;4.50;83.20;;;;;;5092216;28;20477;-73
2021/01/07 07:37:55;;;;;;;6.15;4.72;;;4.60;83.40;;;;;;5092223;28;20024;-73
2021/01/07 07:40:40;;;;;;;4.82;4.10;;;4.60;83.30;;;;;;5093430;28;20020;-73
2021/01/07 07:43:09;;;;;;;6.65;4.80;;;4.60;83.30;;;;;;5093388;28;20364;-73
2021/01/07 07:45:38;;;;;;;6.50;4.93;;;4.60;83.30;;;;;;5094075;28;20031;-73
2021/01/07 07:48:08;;;;;;;5.85;4.72;;;4.50;83.10;;;;;;5093237;28;20444;-73
2021/01/07 07:50:33;;;;;;;5.35;4.20;;;4.50;83.20;;;;;;5093251;28;20066;-73
2021/01/07 07:53:11;;;;;;;5.70;4.10;;;4.50;83.30;;;;;;5091468;28;20398;-73
2021/01/07 07:55:41;;;;;;;6.32;4.45;;;4.50;83.40;;;;;;5091544;28;20016;-73
2021/01/07 07:58:15;;;;;;;5.88;4.40;;;4.60;83.40;;;;;;5093149;28;20030;-73
2021/01/07 08:00:49;;;;;;;5.90;4.18;;;4.60;83.30;;;;;;5093205;28;20028;-73
2021/01/07 08:03:31;;;;;;;4.70;3.83;;;4.60;83.20;;;;;;5092088;28;20031;-73
2021/01/07 08:05:59;;;;;;;6.65;4.82;;;4.60;83.20;;;;;;5093163;28;20035;-73
2021/01/07 08:08:26;;;;;;;7.47;6.03;;;4.60;83.40;;;;;;5091722;28;20021;-73
2021/01/07 08:10:53;;;;;;;5.47;4.82;;;4.60;83.40;;;;;;5093056;28;20019;-73
2021/01/07 08:13:20;;;;;;;6.20;4.72;;;4.60;83.40;;;;;;5092771;28;20479;-73
2021/01/07 08:15:50;;;;;;;5.63;4.45;;;4.60;83.40;;;;;;5093208;28;20042;-73
2021/01/07 08:18:21;;;;;;;5.57;4.63;;;4.50;83.40;;;;;;5091547;28;20024;-74
2021/01/07 08:20:49;;;;;;;5.32;3.97;;;4.50;83.40;;;;;;5110970;28;20502;-72
2021/01/07 08:23:16;;;;;;;5.60;4.07;;;4.50;83.50;;;;;;5094685;28;20035;-72
2021/01/07 08:25:45;;;;;;;6.75;4.60;;;4.50;83.60;;;;;;5110890;28;20150;-72
2021/01/07 08:28:13;;;;;;;6.47;4.35;;;4.50;83.70;;;;;;5111023;28;20043;-73
2021/01/07 08:30:44;;;;;;;4.95;4.30;;;4.50;83.70;;;;;;5110741;28;20070;-73
2021/01/07 08:33:13;;;;;;;5.00;4.07;;;4.50;83.60;;;;;;5110767;28;20027;-73
2021/01/07 08:35:39;;;;;;;5.53;4.65;;;4.50;83.60;;;;;;5093690;28;20031;-73
2021/01/07 08:38:04;;;;;;;5.60;4.43;;;4.50;83.80;;;;;;5110706;28;20097;-72
2021/01/07 08:40:31;;;;;;;5.15;4.07;;;4.60;83.80;;;;;;5110686;28;20074;-73
2021/01/07 08:43:09;;;;;;;5.53;4.30;;;4.60;83.70;;;;;;5110776;28;20030;-73
2021/01/07 08:45:34;;;;;;;6.60;4.50;;;4.60;83.70;;;;;;5110641;28;20586;-72
2021/01/07 08:48:09;;;;;;;5.50;4.15;;;4.70;83.70;;;;;;5110402;28;20110;-73
2021/01/07 08:50:35;;;;;;;5.68;4.25;;;4.70;83.60;;;;;;5110418;28;20016;-74
2021/01/07 08:53:06;;;;;;;7.13;4.38;;;4.70;83.50;;;;;;5091338;28;20494;-72
2021/01/07 08:55:46;;;;;;;7.30;4.80;;;4.70;83.50;;;;;;5091033;28;20506;-73
2021/01/07 08:58:26;;;;;;;5.68;4.72;;;4.70;83.50;;;;;;5092375;28;20106;-73
2021/01/07 09:00:53;;;;;;;6.78;5.22;;;4.70;83.60;;;;;;5091030;28;20027;-72
2021/01/07 09:03:19;;;;;;;5.40;4.68;;;4.70;83.60;;;;;;5092822;28;20031;-72
2021/01/07 09:05:45;;;;;;;6.18;5.20;;;4.70;83.70;;;;;;5093105;28;20477;-73
2021/01/07 09:08:13;;;;;;;6.30;5.03;;;4.70;83.70;;;;;;5096059;28;20043;-73
2021/01/07 09:10:41;;;;;;;6.13;5.10;;;4.70;83.60;;;;;;5095228;28;20378;-73
2021/01/07 09:13:23;;;;;;;7.80;5.63;;;4.70;83.60;;;;;;5095281;28;20043;-72
2021/01/07 09:15:49;;;;;;;6.18;5.00;;;4.70;83.60;;;;;;5094821;28;20113;-73
2021/01/07 09:18:19;;;;;;;7.00;4.60;;;4.70;83.60;;;;;;5094809;28;20492;-73
2021/01/07 09:20:45;;;;;;;6.53;4.68;;;4.70;83.60;;;;;;5094534;28;20024;-73
2021/01/07 09:23:15;;;;;;;6.50;5.05;;;4.70;83.70;;;;;;5094613;28;20078;-73
2021/01/07 09:25:42;;;;;;;8.07;5.63;;;4.70;83.60;;;;;;5095499;28;20024;-73
2021/01/07 09:28:08;;;;;;;7.75;5.30;;;4.70;83.70;;;;;;5095798;28;20028;-72
2021/01/07 09:30:34;;;;;;;6.00;4.53;;;4.70;83.70;;;;;;5095863;28;20020;-73
2021/01/07 09:33:01;;;;;;;7.28;4.60;;;4.80;83.70;;;;;;5094550;28;20111;-72
2021/01/07 09:35:27;;;;;;;7.05;5.07;;;4.80;83.60;;;;;;5091486;28;20063;-73
2021/01/07 09:37:53;;;;;;;6.40;4.53;;;4.90;83.60;;;;;;5095784;28;20020;-74
2021/01/07 09:40:19;;;;;;;6.40;4.57;;;4.90;84.10;;;;;;5096595;28;20020;-74
2021/01/07 09:42:46;;;;;;;5.13;4.03;;;4.90;83.50;;;;;;5094267;28;20070;-73
2021/01/07 09:45:12;;;;;;;4.95;4.15;;;4.90;83.60;;;;;;5094440;28;20484;-73
2021/01/07 09:47:38;;;;;;;6.53;4.65;;;4.90;83.70;;;;;;5094016;28;20024;-73
2021/01/07 09:50:09;;;;;;;5.55;4.10;;;4.90;83.70;;;;;;5095526;28;20012;-73
2021/01/07 09:52:35;;;;;;;5.38;3.90;;;4.90;83.50;;;;;;5095478;28;20027;-72
2021/01/07 09:55:02;;;;;;;5.30;3.50;;;5.00;83.70;;;;;;5094347;28;20379;-74
2021/01/07 09:57:28;;;;;;;4.28;3.47;;;5.00;83.60;;;;;;5093968;28;20036;-74
2021/01/07 09:59:54;;;;;;;5.20;3.65;;;5.10;83.50;;;;;;5095138;28;20379;-72
2021/01/07 10:02:19;;;;;;;6.22;3.40;;;5.10;83.40;;;;;;5094067;28;20554;-73
2021/01/07 10:04:45;;;;;;;3.13;2.75;;;5.10;83.40;;;;;;5093966;28;20031;-74
2021/01/07 10:07:12;;;;;;;3.78;3.10;;;5.20;83.50;;;;;;5093731;28;20024;-73
2021/01/07 10:09:38;;;;;;;3.13;2.83;;;5.20;83.50;;;;;;5093631;28;20081;-73
2021/01/07 10:12:05;;;;;;;8.18;3.40;;;5.20;83.50;;;;;;5093808;28;20043;-72
2021/01/07 10:14:31;;;;;;;6.43;3.78;;;5.20;83.20;;;;;;5095086;28;20040;-73
2021/01/07 10:16:59;;;;;;;5.25;3.67;;;5.20;83.20;;;;;;5094080;28;20073;-73
2021/01/07 10:19:27;;;;;;;4.03;3.30;;;5.20;83.30;;;;;;5095036;28;20016;-73
2021/01/07 10:22:15;;;;;;;4.07;3.25;;;5.20;83.30;;;;;;5093718;28;20020;-73
2021/01/07 10:24:46;;;;;;;4.70;3.45;;;5.20;83.30;;;;;;5093328;28;20020;-73
2021/01/07 10:27:16;;;;;;;6.22;3.05;;;5.20;83.30;;;;;;5094944;28;20016;-73
2021/01/07 10:29:43;;;;;;;4.45;3.08;;;5.30;83.50;;;;;;5094220;28;20464;-73
2021/01/07 10:32:15;;;;;;;3.75;3.20;;;5.30;83.20;;;;;;5093551;28;20028;-73
2021/01/07 10:34:41;;;;;;;3.65;2.92;;;5.30;83.20;;;;;;5093360;28;20019;-73
2021/01/07 10:37:08;;;;;;;4.85;3.22;;;5.30;83.20;;;;;;5094617;28;20527;-73
2021/01/07 10:39:36;;;;;;;3.67;2.90;;;5.30;83.10;;;;;;5094559;28;20044;-74
2021/01/07 10:42:05;;;;;;;3.63;3.15;;;5.30;83.10;;;;;;5094538;28;20027;-73
2021/01/07 10:44:34;;;;;;;4.05;3.10;;;5.30;83.00;;;;;;5093204;28;20058;-74
2021/01/07 10:47:01;;;;;;;2.53;2.33;;;5.20;83.20;;;;;;5093076;28;20437;-74
2021/01/07 10:49:31;;;;;;;3.45;2.97;;;5.20;83.40;;;;;;5093188;28;20028;-74
2021/01/07 10:52:10;;;;;;;3.67;2.95;;;5.20;83.50;;;;;;5093098;28;20020;-73
2021/01/07 10:55:01;;;;;;;5.20;2.92;;;5.30;83.30;;;;;;5094418;28;20099;-74
2021/01/07 10:57:32;;;;;;;2.95;2.60;;;5.30;83.40;;;;;;5093039;28;20028;-74
2021/01/07 11:00:19;;;;;;;4.28;2.90;;;5.30;83.30;;;;;;5092937;28;20078;-74
2021/01/07 11:03:26;;;;;;;4.05;2.75;;;5.30;83.50;;;;;;5094451;28;20023;-74
2021/01/07 11:05:57;;;;;;;4.57;3.10;;;5.30;83.30;;;;;;5093243;28;20031;-74
2021/01/07 11:08:46;;;;;;;6.18;3.25;;;5.30;83.40;;;;;;5094195;28;20028;-74
2021/01/07 11:11:28;;;;;;;4.40;2.85;;;5.30;83.40;;;;;;5083389;28;20028;-74
2021/01/07 11:14:35;;;;;;;3.10;2.75;;;5.30;83.50;;;;;;5093842;28;20066;-74
2021/01/07 11:17:10;;;;;;;3.42;2.55;;;5.30;83.50;;;;;;5086288;28;20040;-74
2021/01/07 11:19:36;;;;;;;2.92;2.30;;;5.30;83.50;;;;;;5092414;28;20116;-74
2021/01/07 11:22:12;;;;;;;3.90;2.53;;;5.30;83.50;;;;;;5093873;28;20153;-74
2021/01/07 11:24:40;;;;;;;3.08;2.60;;;5.40;83.70;;;;;;5092499;28;20161;-74
2021/01/07 11:27:05;;;;;;;4.50;2.65;;;5.40;83.60;;;;;;5092374;28;20028;-74
2021/01/07 11:29:34;;;;;;;3.60;2.50;;;5.40;83.60;;;;;;5092145;28;20020;-74
2021/01/07 11:32:00;;;;;;;2.65;2.10;;;5.40;83.50;;;;;;5092449;28;20020;-74
2021/01/07 11:34:28;;;;;;;2.30;1.83;;;5.30;83.30;;;;;;5093570;28;20028;-74
2021/01/07 11:37:12;;;;;;;2.55;2.15;;;5.30;83.50;;;;;;5092300;28;20454;-74
2021/01/07 11:40:08;;;;;;;3.35;2.25;;;5.30;83.50;;;;;;5092085;28;20122;-74
2021/01/07 11:42:55;;;;;;;3.67;2.53;;;5.30;83.50;;;;;;5086952;28;20032;-74
2021/01/07 11:45:29;;;;;;;3.25;2.10;;;5.40;83.60;;;;;;5091868;28;20024;-74
2021/01/07 11:48:02;;;;;;;3.35;2.30;;;5.40;83.60;;;;;;5091888;28;20024;-74
2021/01/07 11:50:36;;;;;;;2.57;1.97;;;5.40;83.60;;;;;;5091779;28;20048;-74
2021/01/07 11:53:05;;;;;;;2.40;1.88;;;5.40;83.60;;;;;;5091765;28;20359;-74
2021/01/07 11:55:32;;;;;;;2.22;1.83;;;5.40;83.60;;;;;;5093025;28;20024;-74
2021/01/07 11:57:59;;;;;;;3.20;2.08;;;5.40;83.50;;;;;;5091875;28;20057;-74
2021/01/07 12:00:25;;;;;;;3.13;2.00;;;5.40;83.50;;;;;;5091660;28;20031;-74
2021/01/07 12:02:51;;;;;;;3.25;2.00;;;5.40;83.50;;;;;;5092800;28;20103;-74
2021/01/07 12:05:19;;;;;;;2.22;2.00;;;5.40;83.60;;;;;;5091874;28;20110;-74
2021/01/07 12:07:54;;;;;;;2.63;1.90;;;5.40;83.60;;;;;;5091518;28;20042;-74
2021/01/07 12:10:22;;;;;;;3.78;2.17;;;5.40;83.70;;;;;;5091735;28;20107;-72
2021/01/07 12:13:13;;;;;;;3.58;1.95;;;5.40;83.70;;;;;;5091229;28;20048;-73
2021/01/07 12:15:42;;;;;;;3.33;2.45;;;5.40;83.70;;;;;;5093334;28;20447;-73
2021/01/07 12:18:11;;;;;;;2.50;1.80;;;5.50;83.80;;;;;;5091325;28;20028;-73
2021/01/07 12:20:36;;;;;;;3.15;1.70;;;5.50;83.70;;;;;;5092829;28;20051;-73
2021/01/07 12:23:04;;;;;;;2.70;1.42;;;5.50;83.70;;;;;;5091397;28;20531;-73
2021/01/07 12:25:31;;;;;;;1.85;1.50;;;5.60;83.70;;;;;;5091513;28;20379;-73
2021/01/07 12:27:58;;;;;;;1.30;1.20;;;5.60;83.70;;;;;;5091555;28;20097;-74
2021/01/07 12:30:24;;;;;;;1.02;1.00;;;5.60;83.70;;;;;;5091483;28;20118;-74
2021/01/07 12:33:27;;;;;;;1.10;1.00;;;5.60;83.70;;;;;;5092820;28;20081;-73
2021/01/07 12:36:13;;;;;;;1.13;1.00;;;5.50;83.60;;;;;;5092460;28;20024;-73
2021/01/07 12:39:06;;;;;;;0.82;0.80;;;5.50;83.70;;;;;;5092550;28;20028;-73
2021/01/07 12:41:48;;;;;;;1.10;0.95;;;5.50;83.80;;;;;;5094646;28;20020;-73
2021/01/07 12:44:16;;;;;;;1.02;0.93;;;5.60;83.70;;;;;;5096566;28;20070;-73
2021/01/07 12:46:46;;;;;;;1.23;1.13;;;5.60;83.70;;;;;;5095324;28;20081;-73
2021/01/07 12:49:14;;;;;;;2.17;0.90;;;5.60;83.80;;;;;;5096358;28;20539;-74
2021/01/07 12:51:40;;;;;;;1.50;0.82;;;5.60;83.70;;;;;;5096520;28;20020;-73
2021/01/07 12:54:08;;;;;;;1.67;1.10;;;5.70;83.80;;;;;;5094930;28;20099;-73
2021/01/07 12:56:47;;;;;;;1.45;1.00;;;5.70;83.70;;;;;;5095034;28;20114;-73
2021/01/07 12:59:19;;;;;;;2.42;1.27;;;5.70;83.70;;;;;;5095034;28;20107;-73
2021/01/07 13:02:10;;;;;;;1.40;1.00;;;5.70;83.80;;;;;;5095062;28;20024;-73
2021/01/07 13:04:47;;;;;;;3.78;1.30;;;5.60;83.70;;;;;;5094744;28;20383;-73
2021/01/07 13:07:13;;;;;;;2.08;1.00;;;5.70;83.80;;;;;;5094836;28;20503;-74